sensor_id;sensor_type;location;lat;lon;timestamp;P1;durP1;ratioP1;P2;durP2;ratioP2
9106;SDS011;4589;48.690;8.952;2023-12-20T00:02:16;2.47;;;2.10;;
9106;SDS011;4589;48.690;8.952;2023-12-20T00:04:42;2.73;;;2.17;;
9106;SDS011;4589;48.690;8.952;2023-12-20T00:07:08;2.13;;;1.90;;
9106;SDS011;4589;48.690;8.952;2023-12-20T00:09:33;2.30;;;2.10;;
9106;SDS011;4589;48.690;8.952;2023-12-20T00:11:59;2.40;;;2.20;;
9106;SDS011;4589;48.690;8.952;2023-12-20T00:14:24;2.07;;;1.87;;
9106;SDS011;4589;48.690;8.952;2023-12-20T00:16:50;2.37;;;1.80;;
9106;SDS011;4589;48.690;8.952;2023-12-20T00:19:16;2.60;;;2.40;;
9106;SDS011;4589;48.690;8.952;2023-12-20T00:21:42;2.13;;;1.93;;
9106;SDS011;4589;48.690;8.952;2023-12-20T00:24:07;3.13;;;2.33;;
9106;SDS011;4589;48.690;8.952;2023-12-20T00:26:33;3.50;;;2.17;;
9106;SDS011;4589;48.690;8.952;2023-12-20T00:28:59;2.60;;;2.10;;
9106;SDS011;4589;48.690;8.952;2023-12-20T00:31:25;2.50;;;2.17;;
9106;SDS011;4589;48.690;8.952;2023-12-20T00:33:50;1.97;;;1.77;;
9106;SDS011;4589;48.690;8.952;2023-12-20T00:36:16;2.23;;;1.73;;
9106;SDS011;4589;48.690;8.952;2023-12-20T00:38:41;3.07;;;2.10;;
9106;SDS011;4589;48.690;8.952;2023-12-20T00:41:07;2.90;;;2.53;;
9106;SDS011;4589;48.690;8.952;2023-12-20T00:43:33;2.23;;;1.97;;
9106;SDS011;4589;48.690;8.952;2023-12-20T00:45:59;1.97;;;1.87;;
9106;SDS011;4589;48.690;8.952;2023-12-20T00:48:25;2.13;;;1.93;;
9106;SDS011;4589;48.690;8.952;2023-12-20T00:50:52;2.43;;;2.23;;
9106;SDS011;4589;48.690;8.952;2023-12-20T00:53:18;2.97;;;2.30;;
9106;SDS011;4589;48.690;8.952;2023-12-20T00:55:43;2.10;;;1.90;;
9106;SDS011;4589;48.690;8.952;2023-12-20T00:58:09;2.30;;;2.10;;
9106;SDS011;4589;48.690;8.952;2023-12-20T01:00:35;3.10;;;2.40;;
9106;SDS011;4589;48.690;8.952;2023-12-20T01:03:01;2.10;;;2.00;;
9106;SDS011;4589;48.690;8.952;2023-12-20T01:05:26;3.30;;;2.37;;
9106;SDS011;4589;48.690;8.952;2023-12-20T01:07:52;2.80;;;2.40;;
9106;SDS011;4589;48.690;8.952;2023-12-20T01:10:17;2.77;;;2.20;;
9106;SDS011;4589;48.690;8.952;2023-12-20T01:12:43;2.40;;;2.20;;
9106;SDS011;4589;48.690;8.952;2023-12-20T01:15:09;2.30;;;2.10;;
9106;SDS011;4589;48.690;8.952;2023-12-20T01:17:34;2.40;;;2.20;;
9106;SDS011;4589;48.690;8.952;2023-12-20T01:20:00;2.20;;;2.00;;
9106;SDS011;4589;48.690;8.952;2023-12-20T01:22:26;2.80;;;1.80;;
9106;SDS011;4589;48.690;8.952;2023-12-20T01:24:52;2.83;;;2.50;;
9106;SDS011;4589;48.690;8.952;2023-12-20T01:27:17;6.00;;;2.03;;
9106;SDS011;4589;48.690;8.952;2023-12-20T01:29:43;3.13;;;2.00;;
9106;SDS011;4589;48.690;8.952;2023-12-20T01:32:08;1.80;;;1.70;;
9106;SDS011;4589;48.690;8.952;2023-12-20T01:34:34;2.70;;;2.07;;
9106;SDS011;4589;48.690;8.952;2023-12-20T01:36:59;2.90;;;1.90;;
9106;SDS011;4589;48.690;8.952;2023-12-20T01:39:25;1.73;;;1.63;;
9106;SDS011;4589;48.690;8.952;2023-12-20T01:41:51;1.40;;;1.30;;
9106;SDS011;4589;48.690;8.952;2023-12-20T01:44:17;1.77;;;1.30;;
9106;SDS011;4589;48.690;8.952;2023-12-20T01:46:42;3.43;;;1.20;;
9106;SDS011;4589;48.690;8.952;2023-12-20T01:49:08;1.43;;;1.10;;
9106;SDS011;4589;48.690;8.952;2023-12-20T01:51:34;1.33;;;1.23;;
9106;SDS011;4589;48.690;8.952;2023-12-20T01:54:00;1.03;;;0.93;;
9106;SDS011;4589;48.690;8.952;2023-12-20T01:56:26;1.40;;;1.20;;
9106;SDS011;4589;48.690;8.952;2023-12-20T01:58:53;1.00;;;0.90;;
9106;SDS011;4589;48.690;8.952;2023-12-20T02:01:20;1.20;;;0.90;;
9106;SDS011;4589;48.690;8.952;2023-12-20T02:03:46;1.10;;;0.90;;
9106;SDS011;4589;48.690;8.952;2023-12-20T02:06:12;1.20;;;1.10;;
9106;SDS011;4589;48.690;8.952;2023-12-20T02:08:38;1.37;;;1.20;;
9106;SDS011;4589;48.690;8.952;2023-12-20T02:11:04;1.00;;;0.90;;
9106;SDS011;4589;48.690;8.952;2023-12-20T02:13:30;1.10;;;1.00;;
9106;SDS011;4589;48.690;8.952;2023-12-20T02:15:56;1.10;;;0.93;;
9106;SDS011;4589;48.690;8.952;2023-12-20T02:18:21;1.00;;;0.80;;
9106;SDS011;4589;48.690;8.952;2023-12-20T02:20:47;0.90;;;0.80;;
9106;SDS011;4589;48.690;8.952;2023-12-20T02:23:13;1.00;;;0.90;;
9106;SDS011;4589;48.690;8.952;2023-12-20T02:25:39;1.00;;;0.80;;
9106;SDS011;4589;48.690;8.952;2023-12-20T02:28:05;0.90;;;0.80;;
9106;SDS011;4589;48.690;8.952;2023-12-20T02:30:31;1.30;;;1.10;;
9106;SDS011;4589;48.690;8.952;2023-12-20T02:32:57;1.57;;;0.90;;
9106;SDS011;4589;48.690;8.952;2023-12-20T02:35:25;0.90;;;0.80;;
9106;SDS011;4589;48.690;8.952;2023-12-20T02:37:51;0.90;;;0.80;;
9106;SDS011;4589;48.690;8.952;2023-12-20T02:40:16;0.90;;;0.73;;
9106;SDS011;4589;48.690;8.952;2023-12-20T02:42:42;1.00;;;0.80;;
9106;SDS011;4589;48.690;8.952;2023-12-20T02:45:08;0.90;;;0.80;;
9106;SDS011;4589;48.690;8.952;2023-12-20T02:47:34;0.90;;;0.80;;
9106;SDS011;4589;48.690;8.952;2023-12-20T02:50:00;1.00;;;0.80;;
9106;SDS011;4589;48.690;8.952;2023-12-20T02:52:27;1.00;;;0.80;;
9106;SDS011;4589;48.690;8.952;2023-12-20T02:54:53;0.97;;;0.80;;
9106;SDS011;4589;48.690;8.952;2023-12-20T02:57:19;0.90;;;0.80;;
9106;SDS011;4589;48.690;8.952;2023-12-20T02:59:44;0.90;;;0.80;;
9106;SDS011;4589;48.690;8.952;2023-12-20T03:02:10;0.80;;;0.70;;
9106;SDS011;4589;48.690;8.952;2023-12-20T03:04:36;1.27;;;0.90;;
9106;SDS011;4589;48.690;8.952;2023-12-20T03:07:01;0.87;;;0.70;;
9106;SDS011;4589;48.690;8.952;2023-12-20T03:09:27;1.10;;;0.90;;
9106;SDS011;4589;48.690;8.952;2023-12-20T03:11:52;0.90;;;0.70;;
9106;SDS011;4589;48.690;8.952;2023-12-20T03:14:18;0.90;;;0.70;;
9106;SDS011;4589;48.690;8.952;2023-12-20T03:16:49;0.90;;;0.70;;
9106;SDS011;4589;48.690;8.952;2023-12-20T03:19:15;0.90;;;0.80;;
9106;SDS011;4589;48.690;8.952;2023-12-20T03:21:41;0.90;;;0.70;;
9106;SDS011;4589;48.690;8.952;2023-12-20T03:24:06;0.90;;;0.80;;
9106;SDS011;4589;48.690;8.952;2023-12-20T03:26:32;0.90;;;0.80;;
9106;SDS011;4589;48.690;8.952;2023-12-20T03:28:58;3.40;;;0.90;;
9106;SDS011;4589;48.690;8.952;2023-12-20T03:31:24;0.90;;;0.70;;
9106;SDS011;4589;48.690;8.952;2023-12-20T03:33:49;0.90;;;0.70;;
9106;SDS011;4589;48.690;8.952;2023-12-20T03:36:17;0.93;;;0.80;;
9106;SDS011;4589;48.690;8.952;2023-12-20T03:38:42;0.90;;;0.80;;
9106;SDS011;4589;48.690;8.952;2023-12-20T03:41:08;1.40;;;0.80;;
9106;SDS011;4589;48.690;8.952;2023-12-20T03:43:34;0.90;;;0.70;;
9106;SDS011;4589;48.690;8.952;2023-12-20T03:45:59;0.90;;;0.73;;
9106;SDS011;4589;48.690;8.952;2023-12-20T03:48:25;1.00;;;0.90;;
9106;SDS011;4589;48.690;8.952;2023-12-20T03:50:51;1.00;;;0.73;;
9106;SDS011;4589;48.690;8.952;2023-12-20T03:53:16;0.90;;;0.80;;
9106;SDS011;4589;48.690;8.952;2023-12-20T03:55:48;1.00;;;0.90;;
9106;SDS011;4589;48.690;8.952;2023-12-20T03:58:13;0.80;;;0.70;;
9106;SDS011;4589;48.690;8.952;2023-12-20T04:00:39;1.67;;;0.87;;
9106;SDS011;4589;48.690;8.952;2023-12-20T04:03:04;1.17;;;0.80;;
9106;SDS011;4589;48.690;8.952;2023-12-20T04:05:30;1.00;;;0.80;;
9106;SDS011;4589;48.690;8.952;2023-12-20T04:07:55;0.90;;;0.73;;
9106;SDS011;4589;48.690;8.952;2023-12-20T04:10:21;0.80;;;0.67;;
9106;SDS011;4589;48.690;8.952;2023-12-20T04:12:46;0.90;;;0.70;;
9106;SDS011;4589;48.690;8.952;2023-12-20T04:15:12;1.10;;;0.70;;
9106;SDS011;4589;48.690;8.952;2023-12-20T04:17:38;0.93;;;0.80;;
9106;SDS011;4589;48.690;8.952;2023-12-20T04:20:03;0.90;;;0.70;;
9106;SDS011;4589;48.690;8.952;2023-12-20T04:22:30;1.07;;;0.73;;
9106;SDS011;4589;48.690;8.952;2023-12-20T04:24:55;1.00;;;0.70;;
9106;SDS011;4589;48.690;8.952;2023-12-20T04:27:21;1.10;;;0.70;;
9106;SDS011;4589;48.690;8.952;2023-12-20T04:29:47;1.10;;;0.70;;
9106;SDS011;4589;48.690;8.952;2023-12-20T04:32:12;0.90;;;0.70;;
9106;SDS011;4589;48.690;8.952;2023-12-20T04:34:38;0.90;;;0.70;;
9106;SDS011;4589;48.690;8.952;2023-12-20T04:37:03;0.80;;;0.67;;
9106;SDS011;4589;48.690;8.952;2023-12-20T04:39:29;1.33;;;1.23;;
9106;SDS011;4589;48.690;8.952;2023-12-20T04:41:55;0.80;;;0.70;;
9106;SDS011;4589;48.690;8.952;2023-12-20T04:44:20;0.90;;;0.70;;
9106;SDS011;4589;48.690;8.952;2023-12-20T04:46:46;0.80;;;0.63;;
9106;SDS011;4589;48.690;8.952;2023-12-20T04:49:11;1.00;;;0.70;;
9106;SDS011;4589;48.690;8.952;2023-12-20T04:51:37;0.80;;;0.70;;
9106;SDS011;4589;48.690;8.952;2023-12-20T04:54:03;0.87;;;0.70;;
9106;SDS011;4589;48.690;8.952;2023-12-20T04:56:28;1.20;;;0.80;;
9106;SDS011;4589;48.690;8.952;2023-12-20T04:58:54;0.90;;;0.70;;
9106;SDS011;4589;48.690;8.952;2023-12-20T05:01:20;1.00;;;0.70;;
9106;SDS011;4589;48.690;8.952;2023-12-20T05:03:46;0.80;;;0.70;;
9106;SDS011;4589;48.690;8.952;2023-12-20T05:06:12;1.00;;;0.70;;
9106;SDS011;4589;48.690;8.952;2023-12-20T05:08:37;0.90;;;0.60;;
9106;SDS011;4589;48.690;8.952;2023-12-20T05:11:03;0.83;;;0.63;;
9106;SDS011;4589;48.690;8.952;2023-12-20T05:13:29;0.90;;;0.70;;
9106;SDS011;4589;48.690;8.952;2023-12-20T05:15:54;0.90;;;0.70;;
9106;SDS011;4589;48.690;8.952;2023-12-20T05:18:20;0.80;;;0.70;;
9106;SDS011;4589;48.690;8.952;2023-12-20T05:20:46;10.43;;;1.03;;
9106;SDS011;4589;48.690;8.952;2023-12-20T05:23:12;1.43;;;0.70;;
9106;SDS011;4589;48.690;8.952;2023-12-20T05:25:38;2.23;;;0.80;;
9106;SDS011;4589;48.690;8.952;2023-12-20T05:28:04;2.30;;;1.27;;
9106;SDS011;4589;48.690;8.952;2023-12-20T05:30:30;0.90;;;0.70;;
9106;SDS011;4589;48.690;8.952;2023-12-20T05:32:55;0.90;;;0.70;;
9106;SDS011;4589;48.690;8.952;2023-12-20T05:35:21;1.23;;;0.80;;
9106;SDS011;4589;48.690;8.952;2023-12-20T05:37:48;1.03;;;0.90;;
9106;SDS011;4589;48.690;8.952;2023-12-20T05:40:14;0.90;;;0.80;;
9106;SDS011;4589;48.690;8.952;2023-12-20T05:42:39;1.00;;;0.80;;
9106;SDS011;4589;48.690;8.952;2023-12-20T05:45:05;1.00;;;0.80;;
9106;SDS011;4589;48.690;8.952;2023-12-20T05:47:31;2.27;;;1.10;;
9106;SDS011;4589;48.690;8.952;2023-12-20T05:49:56;0.90;;;0.70;;
9106;SDS011;4589;48.690;8.952;2023-12-20T05:52:22;0.90;;;0.80;;
9106;SDS011;4589;48.690;8.952;2023-12-20T05:54:47;1.10;;;1.00;;
9106;SDS011;4589;48.690;8.952;2023-12-20T05:57:13;1.10;;;0.90;;
9106;SDS011;4589;48.690;8.952;2023-12-20T05:59:39;1.00;;;0.80;;
9106;SDS011;4589;48.690;8.952;2023-12-20T06:02:05;1.03;;;0.90;;
9106;SDS011;4589;48.690;8.952;2023-12-20T06:04:31;1.00;;;0.80;;
9106;SDS011;4589;48.690;8.952;2023-12-20T06:06:57;0.90;;;0.77;;
9106;SDS011;4589;48.690;8.952;2023-12-20T06:09:22;0.87;;;0.70;;
9106;SDS011;4589;48.690;8.952;2023-12-20T06:11:48;1.03;;;0.90;;
9106;SDS011;4589;48.690;8.952;2023-12-20T06:14:14;2.47;;;0.90;;
9106;SDS011;4589;48.690;8.952;2023-12-20T06:16:39;1.17;;;1.00;;
9106;SDS011;4589;48.690;8.952;2023-12-20T06:19:05;1.30;;;1.20;;
9106;SDS011;4589;48.690;8.952;2023-12-20T06:21:31;1.30;;;1.20;;
9106;SDS011;4589;48.690;8.952;2023-12-20T06:23:58;1.03;;;0.93;;
9106;SDS011;4589;48.690;8.952;2023-12-20T06:26:24;1.10;;;1.00;;
9106;SDS011;4589;48.690;8.952;2023-12-20T06:28:50;1.77;;;1.10;;
9106;SDS011;4589;48.690;8.952;2023-12-20T06:31:15;1.10;;;0.90;;
9106;SDS011;4589;48.690;8.952;2023-12-20T06:33:42;1.20;;;1.10;;
9106;SDS011;4589;48.690;8.952;2023-12-20T06:36:10;1.03;;;0.93;;
9106;SDS011;4589;48.690;8.952;2023-12-20T06:38:38;0.90;;;0.80;;
9106;SDS011;4589;48.690;8.952;2023-12-20T06:41:03;1.47;;;1.20;;
9106;SDS011;4589;48.690;8.952;2023-12-20T06:43:29;1.20;;;0.90;;
9106;SDS011;4589;48.690;8.952;2023-12-20T06:45:56;1.30;;;1.00;;
9106;SDS011;4589;48.690;8.952;2023-12-20T06:48:21;1.20;;;1.10;;
9106;SDS011;4589;48.690;8.952;2023-12-20T06:50:47;1.50;;;1.30;;
9106;SDS011;4589;48.690;8.952;2023-12-20T06:53:13;2.57;;;1.20;;
9106;SDS011;4589;48.690;8.952;2023-12-20T06:55:38;1.20;;;1.10;;
9106;SDS011;4589;48.690;8.952;2023-12-20T06:58:04;3.53;;;2.13;;
9106;SDS011;4589;48.690;8.952;2023-12-20T07:00:30;1.40;;;1.30;;
9106;SDS011;4589;48.690;8.952;2023-12-20T07:02:55;1.73;;;1.37;;
9106;SDS011;4589;48.690;8.952;2023-12-20T07:05:21;1.67;;;1.43;;
9106;SDS011;4589;48.690;8.952;2023-12-20T07:07:47;1.40;;;1.30;;
9106;SDS011;4589;48.690;8.952;2023-12-20T07:10:13;1.20;;;1.10;;
9106;SDS011;4589;48.690;8.952;2023-12-20T07:12:39;1.00;;;0.90;;
9106;SDS011;4589;48.690;8.952;2023-12-20T07:15:04;1.50;;;1.07;;
9106;SDS011;4589;48.690;8.952;2023-12-20T07:17:33;1.40;;;1.00;;
9106;SDS011;4589;48.690;8.952;2023-12-20T07:19:59;2.07;;;1.20;;
9106;SDS011;4589;48.690;8.952;2023-12-20T07:22:31;4.70;;;1.30;;
9106;SDS011;4589;48.690;8.952;2023-12-20T07:24:58;1.93;;;1.43;;
9106;SDS011;4589;48.690;8.952;2023-12-20T07:27:24;2.10;;;1.97;;
9106;SDS011;4589;48.690;8.952;2023-12-20T07:29:50;1.80;;;1.47;;
9106;SDS011;4589;48.690;8.952;2023-12-20T07:32:16;2.70;;;2.10;;
9106;SDS011;4589;48.690;8.952;2023-12-20T07:34:42;3.40;;;3.10;;
9106;SDS011;4589;48.690;8.952;2023-12-20T07:37:07;7.20;;;4.20;;
9106;SDS011;4589;48.690;8.952;2023-12-20T07:39:35;3.37;;;3.03;;
9106;SDS011;4589;48.690;8.952;2023-12-20T07:42:01;7.10;;;3.40;;
9106;SDS011;4589;48.690;8.952;2023-12-20T07:44:26;7.90;;;4.70;;
9106;SDS011;4589;48.690;8.952;2023-12-20T07:46:52;6.53;;;3.47;;
9106;SDS011;4589;48.690;8.952;2023-12-20T07:49:18;5.83;;;3.57;;
9106;SDS011;4589;48.690;8.952;2023-12-20T07:51:44;5.00;;;3.70;;
9106;SDS011;4589;48.690;8.952;2023-12-20T07:54:10;4.70;;;3.13;;
9106;SDS011;4589;48.690;8.952;2023-12-20T07:56:35;4.20;;;3.50;;
9106;SDS011;4589;48.690;8.952;2023-12-20T07:59:01;4.47;;;3.50;;
9106;SDS011;4589;48.690;8.952;2023-12-20T08:01:27;4.30;;;3.83;;
9106;SDS011;4589;48.690;8.952;2023-12-20T08:03:53;4.33;;;3.13;;
9106;SDS011;4589;48.690;8.952;2023-12-20T08:06:19;4.90;;;3.80;;
9106;SDS011;4589;48.690;8.952;2023-12-20T08:08:45;3.33;;;2.90;;
9106;SDS011;4589;48.690;8.952;2023-12-20T08:11:10;16.80;;;3.27;;
9106;SDS011;4589;48.690;8.952;2023-12-20T08:13:36;13.40;;;4.20;;
9106;SDS011;4589;48.690;8.952;2023-12-20T08:16:01;4.73;;;3.20;;
9106;SDS011;4589;48.690;8.952;2023-12-20T08:18:28;9.47;;;4.57;;
9106;SDS011;4589;48.690;8.952;2023-12-20T08:20:53;30.73;;;5.33;;
9106;SDS011;4589;48.690;8.952;2023-12-20T08:23:19;10.77;;;3.60;;
9106;SDS011;4589;48.690;8.952;2023-12-20T08:25:46;5.93;;;3.47;;
9106;SDS011;4589;48.690;8.952;2023-12-20T08:28:11;3.80;;;3.20;;
9106;SDS011;4589;48.690;8.952;2023-12-20T08:30:37;4.70;;;3.47;;
9106;SDS011;4589;48.690;8.952;2023-12-20T08:33:03;6.00;;;3.40;;
9106;SDS011;4589;48.690;8.952;2023-12-20T08:35:29;6.20;;;3.40;;
9106;SDS011;4589;48.690;8.952;2023-12-20T08:37:56;4.50;;;3.80;;
9106;SDS011;4589;48.690;8.952;2023-12-20T08:40:21;3.77;;;3.40;;
9106;SDS011;4589;48.690;8.952;2023-12-20T08:42:47;4.80;;;4.27;;
9106;SDS011;4589;48.690;8.952;2023-12-20T08:45:12;4.80;;;4.17;;
9106;SDS011;4589;48.690;8.952;2023-12-20T08:47:39;8.23;;;3.73;;
9106;SDS011;4589;48.690;8.952;2023-12-20T08:50:06;5.67;;;3.40;;
9106;SDS011;4589;48.690;8.952;2023-12-20T08:52:32;6.63;;;4.30;;
9106;SDS011;4589;48.690;8.952;2023-12-20T08:54:58;4.93;;;4.17;;
9106;SDS011;4589;48.690;8.952;2023-12-20T08:57:23;6.30;;;3.87;;
9106;SDS011;4589;48.690;8.952;2023-12-20T08:59:50;4.43;;;3.33;;
9106;SDS011;4589;48.690;8.952;2023-12-20T09:02:16;5.87;;;4.20;;
9106;SDS011;4589;48.690;8.952;2023-12-20T09:04:42;5.77;;;3.77;;
9106;SDS011;4589;48.690;8.952;2023-12-20T09:07:20;5.27;;;3.60;;
9106;SDS011;4589;48.690;8.952;2023-12-20T09:09:54;10.97;;;3.63;;
9106;SDS011;4589;48.690;8.952;2023-12-20T09:12:20;5.37;;;3.70;;
9106;SDS011;4589;48.690;8.952;2023-12-20T09:14:46;10.67;;;3.97;;
9106;SDS011;4589;48.690;8.952;2023-12-20T09:17:13;8.73;;;3.57;;
9106;SDS011;4589;48.690;8.952;2023-12-20T09:19:39;5.37;;;2.47;;
9106;SDS011;4589;48.690;8.952;2023-12-20T09:22:05;3.10;;;2.43;;
9106;SDS011;4589;48.690;8.952;2023-12-20T09:24:31;4.37;;;2.00;;
9106;SDS011;4589;48.690;8.952;2023-12-20T09:26:56;4.70;;;2.30;;
9106;SDS011;4589;48.690;8.952;2023-12-20T09:29:22;9.00;;;3.07;;
9106;SDS011;4589;48.690;8.952;2023-12-20T09:31:49;4.03;;;2.23;;
9106;SDS011;4589;48.690;8.952;2023-12-20T09:34:15;5.13;;;2.57;;
9106;SDS011;4589;48.690;8.952;2023-12-20T09:36:42;10.10;;;2.90;;
9106;SDS011;4589;48.690;8.952;2023-12-20T09:39:12;5.83;;;2.67;;
9106;SDS011;4589;48.690;8.952;2023-12-20T09:41:44;5.60;;;2.97;;
9106;SDS011;4589;48.690;8.952;2023-12-20T09:44:15;12.00;;;5.20;;
9106;SDS011;4589;48.690;8.952;2023-12-20T09:46:43;3.50;;;2.30;;
9106;SDS011;4589;48.690;8.952;2023-12-20T09:49:14;3.70;;;2.50;;
9106;SDS011;4589;48.690;8.952;2023-12-20T09:51:42;5.50;;;2.40;;
9106;SDS011;4589;48.690;8.952;2023-12-20T09:54:08;4.23;;;2.00;;
9106;SDS011;4589;48.690;8.952;2023-12-20T09:56:34;2.67;;;2.20;;
9106;SDS011;4589;48.690;8.952;2023-12-20T09:59:02;9.30;;;2.40;;
9106;SDS011;4589;48.690;8.952;2023-12-20T10:01:27;6.20;;;2.10;;
9106;SDS011;4589;48.690;8.952;2023-12-20T10:03:54;5.60;;;2.47;;
9106;SDS011;4589;48.690;8.952;2023-12-20T10:06:20;5.13;;;2.07;;
9106;SDS011;4589;48.690;8.952;2023-12-20T10:08:46;3.07;;;2.33;;
9106;SDS011;4589;48.690;8.952;2023-12-20T10:11:12;3.97;;;2.60;;
9106;SDS011;4589;48.690;8.952;2023-12-20T10:13:39;3.27;;;2.00;;
9106;SDS011;4589;48.690;8.952;2023-12-20T10:16:09;10.53;;;2.40;;
9106;SDS011;4589;48.690;8.952;2023-12-20T10:18:34;10.93;;;3.50;;
9106;SDS011;4589;48.690;8.952;2023-12-20T10:21:01;4.70;;;3.00;;
9106;SDS011;4589;48.690;8.952;2023-12-20T10:23:26;4.03;;;2.17;;
9106;SDS011;4589;48.690;8.952;2023-12-20T10:25:55;3.63;;;2.17;;
9106;SDS011;4589;48.690;8.952;2023-12-20T10:28:24;4.20;;;2.30;;
9106;SDS011;4589;48.690;8.952;2023-12-20T10:30:54;7.50;;;3.37;;
9106;SDS011;4589;48.690;8.952;2023-12-20T10:33:28;4.17;;;2.20;;
9106;SDS011;4589;48.690;8.952;2023-12-20T10:35:55;7.80;;;4.27;;
9106;SDS011;4589;48.690;8.952;2023-12-20T10:38:21;5.93;;;3.23;;
9106;SDS011;4589;48.690;8.952;2023-12-20T10:40:47;7.90;;;2.60;;
9106;SDS011;4589;48.690;8.952;2023-12-20T10:43:14;3.60;;;2.73;;
9106;SDS011;4589;48.690;8.952;2023-12-20T10:45:41;3.57;;;2.50;;
9106;SDS011;4589;48.690;8.952;2023-12-20T10:48:07;4.40;;;2.43;;
9106;SDS011;4589;48.690;8.952;2023-12-20T10:50:36;10.03;;;3.53;;
9106;SDS011;4589;48.690;8.952;2023-12-20T10:53:03;2.73;;;2.40;;
9106;SDS011;4589;48.690;8.952;2023-12-20T10:55:29;7.40;;;3.60;;
9106;SDS011;4589;48.690;8.952;2023-12-20T10:57:58;8.10;;;3.23;;
9106;SDS011;4589;48.690;8.952;2023-12-20T11:00:39;3.40;;;2.30;;
9106;SDS011;4589;48.690;8.952;2023-12-20T11:03:09;3.83;;;2.50;;
9106;SDS011;4589;48.690;8.952;2023-12-20T11:08:12;2.83;;;2.50;;
9106;SDS011;4589;48.690;8.952;2023-12-20T11:10:56;3.33;;;2.60;;
9106;SDS011;4589;48.690;8.952;2023-12-20T11:13:32;5.50;;;2.90;;
9106;SDS011;4589;48.690;8.952;2023-12-20T11:16:00;5.00;;;2.77;;
9106;SDS011;4589;48.690;8.952;2023-12-20T11:18:28;3.90;;;2.13;;
9106;SDS011;4589;48.690;8.952;2023-12-20T11:21:00;5.17;;;2.63;;
9106;SDS011;4589;48.690;8.952;2023-12-20T11:23:30;6.73;;;3.03;;
9106;SDS011;4589;48.690;8.952;2023-12-20T11:25:59;5.10;;;2.33;;
9106;SDS011;4589;48.690;8.952;2023-12-20T11:28:25;7.33;;;2.63;;
9106;SDS011;4589;48.690;8.952;2023-12-20T11:30:52;2.93;;;2.63;;
9106;SDS011;4589;48.690;8.952;2023-12-20T11:33:22;6.30;;;2.77;;
9106;SDS011;4589;48.690;8.952;2023-12-20T11:35:49;4.60;;;2.53;;
9106;SDS011;4589;48.690;8.952;2023-12-20T11:38:15;6.63;;;2.70;;
9106;SDS011;4589;48.690;8.952;2023-12-20T11:40:41;5.97;;;3.53;;
9106;SDS011;4589;48.690;8.952;2023-12-20T11:43:08;11.33;;;4.60;;
9106;SDS011;4589;48.690;8.952;2023-12-20T11:45:34;5.80;;;4.03;;
9106;SDS011;4589;48.690;8.952;2023-12-20T11:48:00;3.73;;;3.10;;
9106;SDS011;4589;48.690;8.952;2023-12-20T11:50:27;10.87;;;4.53;;
9106;SDS011;4589;48.690;8.952;2023-12-20T11:52:55;6.40;;;3.60;;
9106;SDS011;4589;48.690;8.952;2023-12-20T11:55:21;6.37;;;3.23;;
9106;SDS011;4589;48.690;8.952;2023-12-20T11:57:50;6.30;;;3.57;;
9106;SDS011;4589;48.690;8.952;2023-12-20T12:00:16;6.67;;;4.07;;
9106;SDS011;4589;48.690;8.952;2023-12-20T12:02:43;18.63;;;4.53;;
9106;SDS011;4589;48.690;8.952;2023-12-20T12:05:08;6.83;;;3.27;;
9106;SDS011;4589;48.690;8.952;2023-12-20T12:07:34;14.70;;;4.20;;
9106;SDS011;4589;48.690;8.952;2023-12-20T12:10:00;6.73;;;3.47;;
9106;SDS011;4589;48.690;8.952;2023-12-20T12:12:26;3.90;;;3.17;;
9106;SDS011;4589;48.690;8.952;2023-12-20T12:14:52;10.20;;;5.40;;
9106;SDS011;4589;48.690;8.952;2023-12-20T12:17:19;7.13;;;4.37;;
9106;SDS011;4589;48.690;8.952;2023-12-20T12:19:45;15.57;;;4.30;;
9106;SDS011;4589;48.690;8.952;2023-12-20T12:22:11;6.33;;;3.37;;
9106;SDS011;4589;48.690;8.952;2023-12-20T12:24:42;9.97;;;4.27;;
9106;SDS011;4589;48.690;8.952;2023-12-20T12:27:09;7.57;;;3.40;;
9106;SDS011;4589;48.690;8.952;2023-12-20T12:29:35;8.43;;;3.17;;
9106;SDS011;4589;48.690;8.952;2023-12-20T12:32:05;4.90;;;2.20;;
9106;SDS011;4589;48.690;8.952;2023-12-20T12:34:32;7.40;;;3.00;;
9106;SDS011;4589;48.690;8.952;2023-12-20T12:37:03;3.87;;;2.30;;
9106;SDS011;4589;48.690;8.952;2023-12-20T12:39:29;5.03;;;2.30;;
9106;SDS011;4589;48.690;8.952;2023-12-20T12:41:55;13.10;;;2.40;;
9106;SDS011;4589;48.690;8.952;2023-12-20T12:44:22;10.80;;;2.67;;
9106;SDS011;4589;48.690;8.952;2023-12-20T12:46:49;9.63;;;3.33;;
9106;SDS011;4589;48.690;8.952;2023-12-20T12:49:16;10.33;;;4.40;;
9106;SDS011;4589;48.690;8.952;2023-12-20T12:51:42;5.80;;;3.80;;
9106;SDS011;4589;48.690;8.952;2023-12-20T12:54:08;4.47;;;3.03;;
9106;SDS011;4589;48.690;8.952;2023-12-20T12:56:34;8.47;;;2.80;;
9106;SDS011;4589;48.690;8.952;2023-12-20T12:59:01;8.80;;;3.87;;
9106;SDS011;4589;48.690;8.952;2023-12-20T13:01:26;2.67;;;2.30;;
9106;SDS011;4589;48.690;8.952;2023-12-20T13:03:52;3.03;;;2.17;;
9106;SDS011;4589;48.690;8.952;2023-12-20T13:06:19;8.20;;;2.30;;
9106;SDS011;4589;48.690;8.952;2023-12-20T13:08:45;3.90;;;2.00;;
9106;SDS011;4589;48.690;8.952;2023-12-20T13:11:10;3.73;;;2.60;;
9106;SDS011;4589;48.690;8.952;2023-12-20T13:13:36;7.13;;;2.03;;
9106;SDS011;4589;48.690;8.952;2023-12-20T13:16:02;8.00;;;2.20;;
9106;SDS011;4589;48.690;8.952;2023-12-20T13:18:27;5.00;;;2.00;;
9106;SDS011;4589;48.690;8.952;2023-12-20T13:20:53;2.93;;;2.00;;
9106;SDS011;4589;48.690;8.952;2023-12-20T13:23:19;4.17;;;1.93;;
9106;SDS011;4589;48.690;8.952;2023-12-20T13:25:45;2.83;;;1.73;;
9106;SDS011;4589;48.690;8.952;2023-12-20T13:28:11;4.03;;;2.20;;
9106;SDS011;4589;48.690;8.952;2023-12-20T13:30:37;2.80;;;1.57;;
9106;SDS011;4589;48.690;8.952;2023-12-20T13:33:03;3.00;;;1.63;;
9106;SDS011;4589;48.690;8.952;2023-12-20T13:35:30;6.70;;;1.80;;
9106;SDS011;4589;48.690;8.952;2023-12-20T13:37:56;5.53;;;2.70;;
9106;SDS011;4589;48.690;8.952;2023-12-20T13:40:23;3.70;;;2.00;;
9106;SDS011;4589;48.690;8.952;2023-12-20T13:42:48;2.40;;;1.60;;
9106;SDS011;4589;48.690;8.952;2023-12-20T13:45:14;6.10;;;2.13;;
9106;SDS011;4589;48.690;8.952;2023-12-20T13:47:39;7.27;;;1.83;;
9106;SDS011;4589;48.690;8.952;2023-12-20T13:50:05;4.77;;;1.83;;
9106;SDS011;4589;48.690;8.952;2023-12-20T13:52:31;5.73;;;1.87;;
9106;SDS011;4589;48.690;8.952;2023-12-20T13:54:57;5.30;;;1.63;;
9106;SDS011;4589;48.690;8.952;2023-12-20T13:57:22;8.10;;;1.97;;
9106;SDS011;4589;48.690;8.952;2023-12-20T13:59:48;2.80;;;1.83;;
9106;SDS011;4589;48.690;8.952;2023-12-20T14:02:14;5.03;;;2.00;;
9106;SDS011;4589;48.690;8.952;2023-12-20T14:04:41;3.50;;;2.07;;
9106;SDS011;4589;48.690;8.952;2023-12-20T14:07:06;9.90;;;2.10;;
9106;SDS011;4589;48.690;8.952;2023-12-20T14:09:32;3.83;;;1.70;;
9106;SDS011;4589;48.690;8.952;2023-12-20T14:11:58;5.37;;;2.23;;
9106;SDS011;4589;48.690;8.952;2023-12-20T14:14:24;6.37;;;2.40;;
9106;SDS011;4589;48.690;8.952;2023-12-20T14:16:50;8.57;;;2.43;;
9106;SDS011;4589;48.690;8.952;2023-12-20T14:19:16;5.43;;;2.03;;
9106;SDS011;4589;48.690;8.952;2023-12-20T14:21:42;3.97;;;2.40;;
9106;SDS011;4589;48.690;8.952;2023-12-20T14:24:10;10.13;;;3.43;;
9106;SDS011;4589;48.690;8.952;2023-12-20T14:26:40;4.10;;;2.40;;
9106;SDS011;4589;48.690;8.952;2023-12-20T14:29:08;4.73;;;1.80;;
9106;SDS011;4589;48.690;8.952;2023-12-20T14:31:34;5.47;;;2.27;;
9106;SDS011;4589;48.690;8.952;2023-12-20T14:34:00;9.93;;;2.20;;
9106;SDS011;4589;48.690;8.952;2023-12-20T14:36:28;4.90;;;2.00;;
9106;SDS011;4589;48.690;8.952;2023-12-20T14:38:55;3.03;;;2.10;;
9106;SDS011;4589;48.690;8.952;2023-12-20T14:41:21;6.60;;;2.20;;
9106;SDS011;4589;48.690;8.952;2023-12-20T14:43:49;2.63;;;2.33;;
9106;SDS011;4589;48.690;8.952;2023-12-20T14:46:16;3.53;;;2.33;;
9106;SDS011;4589;48.690;8.952;2023-12-20T14:48:42;2.37;;;1.97;;
9106;SDS011;4589;48.690;8.952;2023-12-20T14:51:08;3.50;;;2.20;;
9106;SDS011;4589;48.690;8.952;2023-12-20T14:53:34;6.53;;;2.53;;
9106;SDS011;4589;48.690;8.952;2023-12-20T14:56:02;4.77;;;2.60;;
9106;SDS011;4589;48.690;8.952;2023-12-20T14:58:29;4.57;;;2.20;;
9106;SDS011;4589;48.690;8.952;2023-12-20T15:00:54;3.80;;;2.50;;
9106;SDS011;4589;48.690;8.952;2023-12-20T15:03:21;7.03;;;2.57;;
9106;SDS011;4589;48.690;8.952;2023-12-20T15:05:46;7.50;;;3.30;;
9106;SDS011;4589;48.690;8.952;2023-12-20T15:08:12;4.67;;;2.57;;
9106;SDS011;4589;48.690;8.952;2023-12-20T15:10:39;5.83;;;2.77;;
9106;SDS011;4589;48.690;8.952;2023-12-20T15:13:04;4.53;;;2.20;;